sensor_id;sensor_type;location;lat;lon;timestamp;P1;durP1;ratioP1;P2;durP2;ratioP2
83630;SDS011;73593;52.134;5.426;2023-11-22T00:00:39;14.80;;;5.95;;
83630;SDS011;73593;52.134;5.426;2023-11-22T00:03:06;10.82;;;5.40;;
83630;SDS011;73593;52.134;5.426;2023-11-22T00:05:35;14.07;;;5.40;;
83630;SDS011;73593;52.134;5.426;2023-11-22T00:08:04;11.88;;;5.15;;
83630;SDS011;73593;52.134;5.426;2023-11-22T00:10:31;10.00;;;4.88;;
83630;SDS011;73593;52.134;5.426;2023-11-22T00:13:00;12.00;;;5.28;;
83630;SDS011;73593;52.134;5.426;2023-11-22T00:15:27;13.38;;;5.70;;
83630;SDS011;73593;52.134;5.426;2023-11-22T00:17:56;11.02;;;4.95;;
83630;SDS011;73593;52.134;5.426;2023-11-22T00:20:24;14.10;;;5.53;;
83630;SDS011;73593;52.134;5.426;2023-11-22T00:22:50;15.77;;;5.78;;
83630;SDS011;73593;52.134;5.426;2023-11-22T00:25:19;11.30;;;5.35;;
83630;SDS011;73593;52.134;5.426;2023-11-22T00:27:51;11.70;;;5.03;;
83630;SDS011;73593;52.134;5.426;2023-11-22T00:30:19;11.48;;;5.13;;
83630;SDS011;73593;52.134;5.426;2023-11-22T00:32:49;11.45;;;5.03;;
83630;SDS011;73593;52.134;5.426;2023-11-22T00:35:18;12.55;;;5.45;;
83630;SDS011;73593;52.134;5.426;2023-11-22T00:37:44;12.98;;;6.07;;
83630;SDS011;73593;52.134;5.426;2023-11-22T00:40:12;14.00;;;5.65;;
83630;SDS011;73593;52.134;5.426;2023-11-22T00:42:39;11.30;;;5.60;;
83630;SDS011;73593;52.134;5.426;2023-11-22T00:45:09;14.38;;;5.03;;
83630;SDS011;73593;52.134;5.426;2023-11-22T00:47:37;12.98;;;5.78;;
83630;SDS011;73593;52.134;5.426;2023-11-22T00:50:05;12.55;;;5.22;;
83630;SDS011;73593;52.134;5.426;2023-11-22T00:52:32;15.45;;;5.93;;
83630;SDS011;73593;52.134;5.426;2023-11-22T00:55:01;14.73;;;5.53;;
83630;SDS011;73593;52.134;5.426;2023-11-22T00:57:31;14.30;;;5.22;;
83630;SDS011;73593;52.134;5.426;2023-11-22T01:00:00;12.45;;;5.10;;
83630;SDS011;73593;52.134;5.426;2023-11-22T01:02:26;13.93;;;5.68;;
83630;SDS011;73593;52.134;5.426;2023-11-22T01:04:53;16.40;;;6.40;;
83630;SDS011;73593;52.134;5.426;2023-11-22T01:07:25;13.07;;;4.85;;
83630;SDS011;73593;52.134;5.426;2023-11-22T01:09:53;15.07;;;6.60;;
83630;SDS011;73593;52.134;5.426;2023-11-22T01:12:20;16.08;;;5.75;;
83630;SDS011;73593;52.134;5.426;2023-11-22T01:14:47;17.00;;;6.35;;
83630;SDS011;73593;52.134;5.426;2023-11-22T01:17:13;16.25;;;6.47;;
83630;SDS011;73593;52.134;5.426;2023-11-22T01:19:40;15.88;;;6.47;;
83630;SDS011;73593;52.134;5.426;2023-11-22T01:22:11;15.10;;;6.65;;
83630;SDS011;73593;52.134;5.426;2023-11-22T01:24:40;16.58;;;6.05;;
83630;SDS011;73593;52.134;5.426;2023-11-22T01:27:06;16.67;;;6.85;;
83630;SDS011;73593;52.134;5.426;2023-11-22T01:29:36;15.05;;;6.80;;
83630;SDS011;73593;52.134;5.426;2023-11-22T01:32:02;15.13;;;6.85;;
83630;SDS011;73593;52.134;5.426;2023-11-22T01:34:29;15.40;;;7.00;;
83630;SDS011;73593;52.134;5.426;2023-11-22T01:36:56;14.63;;;6.22;;
83630;SDS011;73593;52.134;5.426;2023-11-22T01:39:25;15.43;;;6.43;;
83630;SDS011;73593;52.134;5.426;2023-11-22T01:41:54;13.18;;;6.22;;
83630;SDS011;73593;52.134;5.426;2023-11-22T01:44:22;13.57;;;5.82;;
83630;SDS011;73593;52.134;5.426;2023-11-22T01:46:50;12.95;;;5.50;;
83630;SDS011;73593;52.134;5.426;2023-11-22T01:49:24;17.25;;;5.78;;
83630;SDS011;73593;52.134;5.426;2023-11-22T01:51:51;15.52;;;5.45;;
83630;SDS011;73593;52.134;5.426;2023-11-22T01:54:20;16.30;;;5.78;;
83630;SDS011;73593;52.134;5.426;2023-11-22T01:56:51;13.60;;;6.57;;
83630;SDS011;73593;52.134;5.426;2023-11-22T01:59:21;14.30;;;5.68;;
83630;SDS011;73593;52.134;5.426;2023-11-22T02:01:48;16.77;;;6.75;;
83630;SDS011;73593;52.134;5.426;2023-11-22T02:04:15;13.13;;;5.63;;
83630;SDS011;73593;52.134;5.426;2023-11-22T02:06:42;14.27;;;6.03;;
83630;SDS011;73593;52.134;5.426;2023-11-22T02:09:09;12.32;;;5.30;;
83630;SDS011;73593;52.134;5.426;2023-11-22T02:11:39;15.65;;;5.80;;
83630;SDS011;73593;52.134;5.426;2023-11-22T02:14:08;16.15;;;6.72;;
83630;SDS011;73593;52.134;5.426;2023-11-22T02:16:37;11.68;;;5.28;;
83630;SDS011;73593;52.134;5.426;2023-11-22T02:19:08;13.35;;;5.65;;
83630;SDS011;73593;52.134;5.426;2023-11-22T02:21:40;13.63;;;5.53;;
83630;SDS011;73593;52.134;5.426;2023-11-22T02:24:07;14.35;;;5.55;;
83630;SDS011;73593;52.134;5.426;2023-11-22T02:26:36;14.45;;;5.80;;
83630;SDS011;73593;52.134;5.426;2023-11-22T02:29:05;14.50;;;6.18;;
83630;SDS011;73593;52.134;5.426;2023-11-22T02:31:32;13.63;;;5.60;;
83630;SDS011;73593;52.134;5.426;2023-11-22T02:34:01;14.35;;;5.80;;
83630;SDS011;73593;52.134;5.426;2023-11-22T02:36:32;14.68;;;5.45;;
83630;SDS011;73593;52.134;5.426;2023-11-22T02:38:59;14.40;;;6.22;;
83630;SDS011;73593;52.134;5.426;2023-11-22T02:41:27;13.32;;;5.20;;
83630;SDS011;73593;52.134;5.426;2023-11-22T02:43:56;13.60;;;5.50;;
83630;SDS011;73593;52.134;5.426;2023-11-22T02:46:23;14.32;;;5.85;;
83630;SDS011;73593;52.134;5.426;2023-11-22T02:48:50;13.32;;;5.10;;
83630;SDS011;73593;52.134;5.426;2023-11-22T02:51:16;12.38;;;4.88;;
83630;SDS011;73593;52.134;5.426;2023-11-22T02:53:46;13.43;;;5.47;;
83630;SDS011;73593;52.134;5.426;2023-11-22T02:56:14;11.98;;;4.60;;
83630;SDS011;73593;52.134;5.426;2023-11-22T02:58:41;11.68;;;5.75;;
83630;SDS011;73593;52.134;5.426;2023-11-22T03:01:08;14.35;;;5.40;;
83630;SDS011;73593;52.134;5.426;2023-11-22T03:03:35;16.60;;;5.60;;
83630;SDS011;73593;52.134;5.426;2023-11-22T03:06:01;15.00;;;5.63;;
83630;SDS011;73593;52.134;5.426;2023-11-22T03:08:28;12.80;;;5.07;;
83630;SDS011;73593;52.134;5.426;2023-11-22T03:10:55;13.50;;;5.22;;
83630;SDS011;73593;52.134;5.426;2023-11-22T03:13:22;11.00;;;4.85;;
83630;SDS011;73593;52.134;5.426;2023-11-22T03:15:53;13.77;;;5.10;;
83630;SDS011;73593;52.134;5.426;2023-11-22T03:18:21;11.43;;;4.97;;
83630;SDS011;73593;52.134;5.426;2023-11-22T03:20:48;11.05;;;5.10;;
83630;SDS011;73593;52.134;5.426;2023-11-22T03:23:15;11.65;;;5.35;;
83630;SDS011;73593;52.134;5.426;2023-11-22T03:25:46;12.95;;;5.10;;
83630;SDS011;73593;52.134;5.426;2023-11-22T03:28:17;12.60;;;5.03;;
83630;SDS011;73593;52.134;5.426;2023-11-22T03:30:44;10.55;;;5.28;;
83630;SDS011;73593;52.134;5.426;2023-11-22T03:33:11;13.05;;;4.43;;
83630;SDS011;73593;52.134;5.426;2023-11-22T03:35:41;15.45;;;5.50;;
83630;SDS011;73593;52.134;5.426;2023-11-22T03:38:08;12.48;;;6.07;;
83630;SDS011;73593;52.134;5.426;2023-11-22T03:40:37;13.68;;;4.97;;
83630;SDS011;73593;52.134;5.426;2023-11-22T03:43:03;12.82;;;4.97;;
83630;SDS011;73593;52.134;5.426;2023-11-22T03:45:36;13.32;;;5.13;;
83630;SDS011;73593;52.134;5.426;2023-11-22T03:48:05;13.98;;;5.63;;
83630;SDS011;73593;52.134;5.426;2023-11-22T03:50:31;15.45;;;5.75;;
83630;SDS011;73593;52.134;5.426;2023-11-22T03:53:03;13.23;;;5.00;;
83630;SDS011;73593;52.134;5.426;2023-11-22T03:55:32;13.10;;;4.97;;
83630;SDS011;73593;52.134;5.426;2023-11-22T03:58:01;13.55;;;4.68;;
83630;SDS011;73593;52.134;5.426;2023-11-22T04:00:32;11.02;;;4.32;;
83630;SDS011;73593;52.134;5.426;2023-11-22T04:03:01;12.40;;;4.82;;
83630;SDS011;73593;52.134;5.426;2023-11-22T04:05:28;10.18;;;4.75;;
83630;SDS011;73593;52.134;5.426;2023-11-22T04:07:55;14.57;;;5.53;;
83630;SDS011;73593;52.134;5.426;2023-11-22T04:10:22;10.70;;;4.88;;
83630;SDS011;73593;52.134;5.426;2023-11-22T04:12:49;11.10;;;4.82;;
83630;SDS011;73593;52.134;5.426;2023-11-22T04:15:18;12.35;;;5.00;;
83630;SDS011;73593;52.134;5.426;2023-11-22T04:17:45;13.30;;;5.20;;
83630;SDS011;73593;52.134;5.426;2023-11-22T04:20:14;11.10;;;4.97;;
83630;SDS011;73593;52.134;5.426;2023-11-22T04:22:46;13.10;;;4.88;;
83630;SDS011;73593;52.134;5.426;2023-11-22T04:25:15;12.32;;;5.00;;
83630;SDS011;73593;52.134;5.426;2023-11-22T04:27:44;14.73;;;5.60;;
83630;SDS011;73593;52.134;5.426;2023-11-22T04:30:13;12.65;;;5.15;;
83630;SDS011;73593;52.134;5.426;2023-11-22T04:32:43;10.48;;;4.38;;
83630;SDS011;73593;52.134;5.426;2023-11-22T04:35:11;12.88;;;5.20;;
83630;SDS011;73593;52.134;5.426;2023-11-22T04:37:38;13.20;;;5.13;;
83630;SDS011;73593;52.134;5.426;2023-11-22T04:40:05;12.35;;;5.38;;
83630;SDS011;73593;52.134;5.426;2023-11-22T04:42:34;13.75;;;5.43;;
83630;SDS011;73593;52.134;5.426;2023-11-22T04:45:05;13.98;;;5.40;;
83630;SDS011;73593;52.134;5.426;2023-11-22T04:47:32;12.68;;;5.00;;
83630;SDS011;73593;52.134;5.426;2023-11-22T04:50:00;14.95;;;5.40;;
83630;SDS011;73593;52.134;5.426;2023-11-22T04:52:27;14.25;;;5.07;;
83630;SDS011;73593;52.134;5.426;2023-11-22T04:54:56;16.20;;;5.38;;
83630;SDS011;73593;52.134;5.426;2023-11-22T04:57:26;11.23;;;5.05;;
83630;SDS011;73593;52.134;5.426;2023-11-22T04:59:52;14.68;;;6.55;;
83630;SDS011;73593;52.134;5.426;2023-11-22T05:02:19;12.98;;;5.63;;
83630;SDS011;73593;52.134;5.426;2023-11-22T05:04:48;13.38;;;5.13;;
83630;SDS011;73593;52.134;5.426;2023-11-22T05:07:16;12.27;;;4.85;;
83630;SDS011;73593;52.134;5.426;2023-11-22T05:09:42;12.02;;;5.30;;
83630;SDS011;73593;52.134;5.426;2023-11-22T05:12:10;14.00;;;5.07;;
83630;SDS011;73593;52.134;5.426;2023-11-22T05:14:37;14.05;;;5.75;;
83630;SDS011;73593;52.134;5.426;2023-11-22T05:17:06;15.13;;;5.65;;
83630;SDS011;73593;52.134;5.426;2023-11-22T05:19:33;14.68;;;5.25;;
83630;SDS011;73593;52.134;5.426;2023-11-22T05:22:04;14.18;;;5.45;;
83630;SDS011;73593;52.134;5.426;2023-11-22T05:24:31;12.45;;;5.03;;
83630;SDS011;73593;52.134;5.426;2023-11-22T05:27:01;12.23;;;5.03;;
83630;SDS011;73593;52.134;5.426;2023-11-22T05:29:28;11.68;;;5.07;;
83630;SDS011;73593;52.134;5.426;2023-11-22T05:32:08;12.07;;;5.35;;
83630;SDS011;73593;52.134;5.426;2023-11-22T05:37:02;11.35;;;4.60;;
83630;SDS011;73593;52.134;5.426;2023-11-22T05:39:32;13.55;;;5.70;;
83630;SDS011;73593;52.134;5.426;2023-11-22T05:41:58;13.02;;;4.78;;
83630;SDS011;73593;52.134;5.426;2023-11-22T05:44:29;11.95;;;5.20;;
83630;SDS011;73593;52.134;5.426;2023-11-22T05:46:59;13.63;;;5.13;;
83630;SDS011;73593;52.134;5.426;2023-11-22T05:49:25;15.10;;;5.70;;
83630;SDS011;73593;52.134;5.426;2023-11-22T05:51:52;13.02;;;5.03;;
83630;SDS011;73593;52.134;5.426;2023-11-22T05:54:21;14.50;;;5.30;;
83630;SDS011;73593;52.134;5.426;2023-11-22T05:56:50;14.73;;;6.35;;
83630;SDS011;73593;52.134;5.426;2023-11-22T05:59:16;20.42;;;9.77;;
83630;SDS011;73593;52.134;5.426;2023-11-22T06:01:43;20.13;;;8.02;;
83630;SDS011;73593;52.134;5.426;2023-11-22T06:04:09;17.42;;;7.20;;
83630;SDS011;73593;52.134;5.426;2023-11-22T06:06:36;16.30;;;5.95;;
83630;SDS011;73593;52.134;5.426;2023-11-22T06:09:09;16.23;;;6.35;;
83630;SDS011;73593;52.134;5.426;2023-11-22T06:11:40;15.70;;;7.00;;
83630;SDS011;73593;52.134;5.426;2023-11-22T06:14:07;13.77;;;5.10;;
83630;SDS011;73593;52.134;5.426;2023-11-22T06:16:39;11.98;;;5.45;;
83630;SDS011;73593;52.134;5.426;2023-11-22T06:19:05;14.05;;;6.00;;
83630;SDS011;73593;52.134;5.426;2023-11-22T06:21:36;15.35;;;5.90;;
83630;SDS011;73593;52.134;5.426;2023-11-22T06:24:05;14.85;;;6.45;;
83630;SDS011;73593;52.134;5.426;2023-11-22T06:26:34;16.20;;;5.97;;
83630;SDS011;73593;52.134;5.426;2023-11-22T06:29:01;14.32;;;6.00;;
83630;SDS011;73593;52.134;5.426;2023-11-22T06:31:30;17.75;;;6.32;;
83630;SDS011;73593;52.134;5.426;2023-11-22T06:33:57;17.27;;;6.45;;
83630;SDS011;73593;52.134;5.426;2023-11-22T06:36:26;16.83;;;5.43;;
83630;SDS011;73593;52.134;5.426;2023-11-22T06:38:52;16.52;;;5.95;;
83630;SDS011;73593;52.134;5.426;2023-11-22T06:41:21;17.30;;;6.88;;
83630;SDS011;73593;52.134;5.426;2023-11-22T06:43:48;15.30;;;5.97;;
83630;SDS011;73593;52.134;5.426;2023-11-22T06:46:17;15.23;;;6.45;;
83630;SDS011;73593;52.134;5.426;2023-11-22T06:48:43;13.85;;;5.88;;
83630;SDS011;73593;52.134;5.426;2023-11-22T06:51:14;15.02;;;5.60;;
83630;SDS011;73593;52.134;5.426;2023-11-22T06:53:41;13.95;;;5.55;;
83630;SDS011;73593;52.134;5.426;2023-11-22T06:56:08;13.02;;;5.43;;
83630;SDS011;73593;52.134;5.426;2023-11-22T06:58:51;13.77;;;5.32;;
83630;SDS011;73593;52.134;5.426;2023-11-22T07:01:22;16.10;;;6.15;;
83630;SDS011;73593;52.134;5.426;2023-11-22T07:03:50;14.32;;;7.07;;
83630;SDS011;73593;52.134;5.426;2023-11-22T07:06:18;14.85;;;5.63;;
83630;SDS011;73593;52.134;5.426;2023-11-22T07:08:51;12.90;;;5.43;;
83630;SDS011;73593;52.134;5.426;2023-11-22T07:11:24;16.73;;;6.07;;
83630;SDS011;73593;52.134;5.426;2023-11-22T07:13:53;19.02;;;6.78;;
83630;SDS011;73593;52.134;5.426;2023-11-22T07:16:19;14.85;;;6.15;;
83630;SDS011;73593;52.134;5.426;2023-11-22T07:18:47;17.80;;;5.97;;
83630;SDS011;73593;52.134;5.426;2023-11-22T07:21:16;20.70;;;6.35;;
83630;SDS011;73593;52.134;5.426;2023-11-22T07:23:43;13.98;;;5.68;;
83630;SDS011;73593;52.134;5.426;2023-11-22T07:28:40;16.90;;;5.72;;
83630;SDS011;73593;52.134;5.426;2023-11-22T07:31:08;15.90;;;6.15;;
83630;SDS011;73593;52.134;5.426;2023-11-22T07:33:35;14.18;;;5.45;;
83630;SDS011;73593;52.134;5.426;2023-11-22T07:36:02;15.85;;;6.65;;
83630;SDS011;73593;52.134;5.426;2023-11-22T07:38:31;15.48;;;6.10;;
83630;SDS011;73593;52.134;5.426;2023-11-22T07:41:04;17.83;;;6.95;;
83630;SDS011;73593;52.134;5.426;2023-11-22T07:43:31;22.02;;;7.70;;
83630;SDS011;73593;52.134;5.426;2023-11-22T07:45:57;14.13;;;5.97;;
83630;SDS011;73593;52.134;5.426;2023-11-22T07:48:27;14.50;;;6.78;;
83630;SDS011;73593;52.134;5.426;2023-11-22T07:50:54;14.80;;;6.90;;
83630;SDS011;73593;52.134;5.426;2023-11-22T07:53:24;17.27;;;6.53;;
83630;SDS011;73593;52.134;5.426;2023-11-22T07:55:55;19.45;;;7.20;;
83630;SDS011;73593;52.134;5.426;2023-11-22T07:58:23;13.43;;;6.25;;
83630;SDS011;73593;52.134;5.426;2023-11-22T08:00:51;15.57;;;6.38;;
83630;SDS011;73593;52.134;5.426;2023-11-22T08:03:21;16.38;;;5.95;;
83630;SDS011;73593;52.134;5.426;2023-11-22T08:05:52;17.70;;;6.22;;
83630;SDS011;73593;52.134;5.426;2023-11-22T08:08:22;15.35;;;6.05;;
83630;SDS011;73593;52.134;5.426;2023-11-22T08:10:50;15.07;;;6.30;;
83630;SDS011;73593;52.134;5.426;2023-11-22T08:13:20;16.00;;;6.22;;
83630;SDS011;73593;52.134;5.426;2023-11-22T08:15:49;15.10;;;6.05;;
83630;SDS011;73593;52.134;5.426;2023-11-22T08:18:16;17.67;;;6.25;;
83630;SDS011;73593;52.134;5.426;2023-11-22T08:20:44;15.52;;;5.28;;
83630;SDS011;73593;52.134;5.426;2023-11-22T08:23:12;15.40;;;6.57;;
83630;SDS011;73593;52.134;5.426;2023-11-22T08:25:41;17.55;;;6.65;;
83630;SDS011;73593;52.134;5.426;2023-11-22T08:28:10;14.68;;;6.53;;
83630;SDS011;73593;52.134;5.426;2023-11-22T08:30:40;17.85;;;6.28;;
83630;SDS011;73593;52.134;5.426;2023-11-22T08:33:12;14.00;;;5.82;;
83630;SDS011;73593;52.134;5.426;2023-11-22T08:35:44;14.75;;;6.53;;
83630;SDS011;73593;52.134;5.426;2023-11-22T08:38:17;16.52;;;6.78;;
83630;SDS011;73593;52.134;5.426;2023-11-22T08:40:46;16.92;;;7.50;;
83630;SDS011;73593;52.134;5.426;2023-11-22T08:43:12;15.18;;;6.40;;
83630;SDS011;73593;52.134;5.426;2023-11-22T08:45:39;16.48;;;6.72;;
83630;SDS011;73593;52.134;5.426;2023-11-22T08:48:10;14.98;;;6.78;;
83630;SDS011;73593;52.134;5.426;2023-11-22T08:50:37;15.73;;;6.88;;
83630;SDS011;73593;52.134;5.426;2023-11-22T08:53:05;15.32;;;6.43;;
83630;SDS011;73593;52.134;5.426;2023-11-22T08:55:35;17.45;;;7.22;;
83630;SDS011;73593;52.134;5.426;2023-11-22T08:58:01;16.08;;;7.15;;
83630;SDS011;73593;52.134;5.426;2023-11-22T09:00:28;22.40;;;8.07;;
83630;SDS011;73593;52.134;5.426;2023-11-22T09:02:58;15.48;;;6.03;;
83630;SDS011;73593;52.134;5.426;2023-11-22T09:05:29;16.40;;;7.43;;
83630;SDS011;73593;52.134;5.426;2023-11-22T09:07:56;19.38;;;6.97;;
83630;SDS011;73593;52.134;5.426;2023-11-22T09:10:38;15.13;;;6.25;;
83630;SDS011;73593;52.134;5.426;2023-11-22T09:13:08;18.25;;;7.03;;
83630;SDS011;73593;52.134;5.426;2023-11-22T09:15:35;18.08;;;8.25;;
83630;SDS011;73593;52.134;5.426;2023-11-22T09:18:02;17.58;;;7.75;;
83630;SDS011;73593;52.134;5.426;2023-11-22T09:20:32;17.65;;;6.50;;
83630;SDS011;73593;52.134;5.426;2023-11-22T09:23:02;16.15;;;7.00;;
83630;SDS011;73593;52.134;5.426;2023-11-22T09:25:30;20.40;;;8.07;;
83630;SDS011;73593;52.134;5.426;2023-11-22T09:27:59;17.60;;;7.68;;
83630;SDS011;73593;52.134;5.426;2023-11-22T09:30:27;16.67;;;6.72;;
83630;SDS011;73593;52.134;5.426;2023-11-22T09:33:12;15.77;;;6.63;;
83630;SDS011;73593;52.134;5.426;2023-11-22T09:35:43;18.58;;;7.40;;
83630;SDS011;73593;52.134;5.426;2023-11-22T09:38:13;16.63;;;6.30;;
83630;SDS011;73593;52.134;5.426;2023-11-22T09:40:46;15.63;;;6.95;;
83630;SDS011;73593;52.134;5.426;2023-11-22T09:43:15;18.27;;;6.50;;
83630;SDS011;73593;52.134;5.426;2023-11-22T09:45:49;16.67;;;7.18;;
83630;SDS011;73593;52.134;5.426;2023-11-22T09:48:22;18.80;;;8.00;;
83630;SDS011;73593;52.134;5.426;2023-11-22T09:56:12;19.95;;;8.05;;
83630;SDS011;73593;52.134;5.426;2023-11-22T09:58:42;19.17;;;7.40;;
83630;SDS011;73593;52.134;5.426;2023-11-22T10:01:13;16.80;;;7.10;;
83630;SDS011;73593;52.134;5.426;2023-11-22T10:03:40;18.63;;;7.57;;
83630;SDS011;73593;52.134;5.426;2023-11-22T10:06:07;18.75;;;7.32;;
83630;SDS011;73593;52.134;5.426;2023-11-22T10:08:41;19.52;;;8.13;;
83630;SDS011;73593;52.134;5.426;2023-11-22T10:11:10;18.65;;;7.43;;
83630;SDS011;73593;52.134;5.426;2023-11-22T10:13:37;17.25;;;7.88;;
83630;SDS011;73593;52.134;5.426;2023-11-22T10:16:10;21.50;;;8.55;;
83630;SDS011;73593;52.134;5.426;2023-11-22T10:18:42;17.77;;;7.82;;
83630;SDS011;73593;52.134;5.426;2023-11-22T10:21:27;18.02;;;8.25;;
83630;SDS011;73593;52.134;5.426;2023-11-22T10:23:57;17.40;;;7.15;;
83630;SDS011;73593;52.134;5.426;2023-11-22T10:26:28;20.77;;;7.55;;
83630;SDS011;73593;52.134;5.426;2023-11-22T10:28:56;17.80;;;7.43;;
83630;SDS011;73593;52.134;5.426;2023-11-22T10:31:24;20.65;;;7.65;;
83630;SDS011;73593;52.134;5.426;2023-11-22T10:33:54;18.13;;;7.72;;
83630;SDS011;73593;52.134;5.426;2023-11-22T10:38:53;14.27;;;6.85;;
83630;SDS011;73593;52.134;5.426;2023-11-22T10:43:56;17.35;;;7.90;;
83630;SDS011;73593;52.134;5.426;2023-11-22T10:46:32;17.77;;;7.43;;
83630;SDS011;73593;52.134;5.426;2023-11-22T10:48:59;17.73;;;7.90;;
83630;SDS011;73593;52.134;5.426;2023-11-22T10:51:27;16.75;;;6.97;;
83630;SDS011;73593;52.134;5.426;2023-11-22T10:54:00;19.33;;;7.28;;
83630;SDS011;73593;52.134;5.426;2023-11-22T10:56:38;17.75;;;7.40;;
83630;SDS011;73593;52.134;5.426;2023-11-22T10:59:10;19.55;;;8.18;;
83630;SDS011;73593;52.134;5.426;2023-11-22T11:01:44;18.58;;;7.47;;
83630;SDS011;73593;52.134;5.426;2023-11-22T11:04:27;14.88;;;7.18;;
83630;SDS011;73593;52.134;5.426;2023-11-22T11:07:02;16.42;;;6.65;;
83630;SDS011;73593;52.134;5.426;2023-11-22T11:09:38;16.55;;;7.45;;
83630;SDS011;73593;52.134;5.426;2023-11-22T11:12:06;17.33;;;7.38;;
83630;SDS011;73593;52.134;5.426;2023-11-22T11:14:38;18.13;;;7.60;;
83630;SDS011;73593;52.134;5.426;2023-11-22T11:17:05;18.63;;;7.28;;
83630;SDS011;73593;52.134;5.426;2023-11-22T11:19:34;17.92;;;7.90;;
83630;SDS011;73593;52.134;5.426;2023-11-22T11:22:02;17.48;;;8.02;;
83630;SDS011;73593;52.134;5.426;2023-11-22T11:24:42;17.65;;;7.75;;
83630;SDS011;73593;52.134;5.426;2023-11-22T11:27:14;15.18;;;6.55;;
83630;SDS011;73593;52.134;5.426;2023-11-22T11:29:45;15.35;;;7.03;;
83630;SDS011;73593;52.134;5.426;2023-11-22T11:32:31;15.25;;;6.22;;
83630;SDS011;73593;52.134;5.426;2023-11-22T11:37:39;15.13;;;7.10;;
83630;SDS011;73593;52.134;5.426;2023-11-22T11:43:21;15.10;;;7.05;;
83630;SDS011;73593;52.134;5.426;2023-11-22T11:46:08;17.45;;;7.22;;
83630;SDS011;73593;52.134;5.426;2023-11-22T11:48:38;14.77;;;6.68;;
83630;SDS011;73593;52.134;5.426;2023-11-22T11:51:08;15.77;;;7.85;;
83630;SDS011;73593;52.134;5.426;2023-11-22T11:53:40;16.17;;;7.28;;
83630;SDS011;73593;52.134;5.426;2023-11-22T11:56:07;14.88;;;7.18;;
83630;SDS011;73593;52.134;5.426;2023-11-22T11:58:35;13.98;;;7.00;;
83630;SDS011;73593;52.134;5.426;2023-11-22T12:01:02;16.77;;;8.13;;
83630;SDS011;73593;52.134;5.426;2023-11-22T12:03:28;16.13;;;7.80;;
83630;SDS011;73593;52.134;5.426;2023-11-22T12:05:55;18.33;;;8.32;;
83630;SDS011;73593;52.134;5.426;2023-11-22T12:08:22;18.25;;;7.90;;
83630;SDS011;73593;52.134;5.426;2023-11-22T12:10:49;16.13;;;7.10;;
83630;SDS011;73593;52.134;5.426;2023-11-22T12:13:20;13.35;;;6.30;;
83630;SDS011;73593;52.134;5.426;2023-11-22T12:15:47;15.20;;;6.50;;
83630;SDS011;73593;52.134;5.426;2023-11-22T12:18:14;14.93;;;7.22;;
83630;SDS011;73593;52.134;5.426;2023-11-22T12:20:42;13.73;;;7.05;;
83630;SDS011;73593;52.134;5.426;2023-11-22T12:23:21;15.02;;;6.85;;
83630;SDS011;73593;52.134;5.426;2023-11-22T12:25:57;14.77;;;7.18;;
83630;SDS011;73593;52.134;5.426;2023-11-22T12:28:26;15.50;;;6.13;;
83630;SDS011;73593;52.134;5.426;2023-11-22T12:31:05;13.73;;;6.38;;
83630;SDS011;73593;52.134;5.426;2023-11-22T12:33:33;15.82;;;7.65;;
83630;SDS011;73593;52.134;5.426;2023-11-22T12:36:01;13.27;;;6.63;;
83630;SDS011;73593;52.134;5.426;2023-11-22T12:38:30;17.05;;;7.60;;
83630;SDS011;73593;52.134;5.426;2023-11-22T12:40:57;15.05;;;7.03;;
83630;SDS011;73593;52.134;5.426;2023-11-22T12:43:27;14.63;;;7.03;;
83630;SDS011;73593;52.134;5.426;2023-11-22T12:46:08;18.00;;;7.68;;
83630;SDS011;73593;52.134;5.426;2023-11-22T12:48:39;21.48;;;8.90;;
83630;SDS011;73593;52.134;5.426;2023-11-22T12:51:17;16.13;;;7.53;;
83630;SDS011;73593;52.134;5.426;2023-11-22T12:53:53;18.92;;;8.05;;
83630;SDS011;73593;52.134;5.426;2023-11-22T12:56:19;19.77;;;8.45;;
83630;SDS011;73593;52.134;5.426;2023-11-22T12:58:51;20.73;;;8.50;;
83630;SDS011;73593;52.134;5.426;2023-11-22T13:01:18;24.15;;;10.43;;
83630;SDS011;73593;52.134;5.426;2023-11-22T13:03:46;23.50;;;8.68;;
83630;SDS011;73593;52.134;5.426;2023-11-22T13:06:13;20.27;;;8.40;;
83630;SDS011;73593;52.134;5.426;2023-11-22T13:08:44;19.38;;;8.68;;
83630;SDS011;73593;52.134;5.426;2023-11-22T13:11:11;18.90;;;8.30;;
83630;SDS011;73593;52.134;5.426;2023-11-22T13:13:39;19.48;;;7.95;;
83630;SDS011;73593;52.134;5.426;2023-11-22T13:16:06;21.05;;;8.25;;
83630;SDS011;73593;52.134;5.426;2023-11-22T13:18:33;19.67;;;8.95;;
83630;SDS011;73593;52.134;5.426;2023-11-22T13:20:59;23.77;;;9.40;;
83630;SDS011;73593;52.134;5.426;2023-11-22T13:23:27;18.70;;;7.57;;
83630;SDS011;73593;52.134;5.426;2023-11-22T13:25:56;16.65;;;7.65;;
83630;SDS011;73593;52.134;5.426;2023-11-22T13:28:23;19.63;;;7.75;;
83630;SDS011;73593;52.134;5.426;2023-11-22T13:30:51;17.27;;;7.65;;
83630;SDS011;73593;52.134;5.426;2023-11-22T13:33:21;19.73;;;7.80;;
83630;SDS011;73593;52.134;5.426;2023-11-22T13:35:50;19.45;;;8.07;;
83630;SDS011;73593;52.134;5.426;2023-11-22T13:38:17;17.42;;;7.45;;
83630;SDS011;73593;52.134;5.426;2023-11-22T13:40:46;17.77;;;7.35;;
83630;SDS011;73593;52.134;5.426;2023-11-22T13:43:17;19.80;;;8.02;;
83630;SDS011;73593;52.134;5.426;2023-11-22T13:45:46;17.90;;;6.93;;
83630;SDS011;73593;52.134;5.426;2023-11-22T13:48:13;19.10;;;7.97;;
83630;SDS011;73593;52.134;5.426;2023-11-22T13:50:42;20.23;;;7.70;;
83630;SDS011;73593;52.134;5.426;2023-11-22T13:53:09;18.70;;;8.07;;
83630;SDS011;73593;52.134;5.426;2023-11-22T13:55:37;17.55;;;7.68;;
83630;SDS011;73593;52.134;5.426;2023-11-22T13:58:05;20.75;;;8.30;;
83630;SDS011;73593;52.134;5.426;2023-11-22T14:00:31;20.48;;;9.00;;
83630;SDS011;73593;52.134;5.426;2023-11-22T14:03:02;17.67;;;7.43;;
83630;SDS011;73593;52.134;5.426;2023-11-22T14:05:37;17.13;;;8.10;;
83630;SDS011;73593;52.134;5.426;2023-11-22T14:08:08;17.48;;;7.55;;
83630;SDS011;73593;52.134;5.426;2023-11-22T14:10:35;17.17;;;8.02;;
83630;SDS011;73593;52.134;5.426;2023-11-22T14:13:02;16.30;;;7.70;;
83630;SDS011;73593;52.134;5.426;2023-11-22T14:15:30;20.80;;;8.45;;
83630;SDS011;73593;52.134;5.426;2023-11-22T14:17:58;19.20;;;8.40;;
83630;SDS011;73593;52.134;5.426;2023-11-22T14:20:29;17.58;;;8.82;;
83630;SDS011;73593;52.134;5.426;2023-11-22T14:22:56;19.80;;;8.88;;
83630;SDS011;73593;52.134;5.426;2023-11-22T14:25:25;19.80;;;9.27;;
83630;SDS011;73593;52.134;5.426;2023-11-22T14:27:55;22.08;;;9.25;;
83630;SDS011;73593;52.134;5.426;2023-11-22T14:30:25;21.77;;;9.57;;
83630;SDS011;73593;52.134;5.426;2023-11-22T14:32:59;23.58;;;9.82;;
83630;SDS011;73593;52.134;5.426;2023-11-22T14:35:26;21.88;;;8.73;;
83630;SDS011;73593;52.134;5.426;2023-11-22T14:37:54;21.90;;;9.13;;
83630;SDS011;73593;52.134;5.426;2023-11-22T14:40:25;20.63;;;9.70;;
83630;SDS011;73593;52.134;5.426;2023-11-22T14:42:53;21.70;;;9.15;;
83630;SDS011;73593;52.134;5.426;2023-11-22T14:45:20;23.73;;;10.43;;
83630;SDS011;73593;52.134;5.426;2023-11-22T14:47:47;20.33;;;9.30;;
83630;SDS011;73593;52.134;5.426;2023-11-22T14:50:14;21.40;;;9.60;;
83630;SDS011;73593;52.134;5.426;2023-11-22T14:52:42;20.42;;;9.10;;
83630;SDS011;73593;52.134;5.426;2023-11-22T14:55:14;21.00;;;9.77;;
83630;SDS011;73593;52.134;5.426;2023-11-22T14:57:42;21.58;;;9.07;;
83630;SDS011;73593;52.134;5.426;2023-11-22T15:00:09;21.88;;;10.48;;
83630;SDS011;73593;52.134;5.426;2023-11-22T15:02:40;21.63;;;8.98;;
83630;SDS011;73593;52.134;5.426;2023-11-22T15:05:09;22.38;;;9.35;;